createdAt,value
2023-01-22T00:00:12.042Z,1.69
2023-01-22T00:00:33.130Z,1.68
2023-01-22T00:00:54.182Z,1.68
2023-01-22T00:01:15.248Z,1.68
2023-01-22T00:01:36.300Z,1.68
2023-01-22T00:01:57.373Z,1.68
2023-01-22T00:02:18.467Z,1.68
2023-01-22T00:02:39.565Z,1.68
2023-01-22T00:03:00.615Z,1.68
2023-01-22T00:03:21.739Z,1.68
2023-01-22T00:03:44.705Z,1.67
2023-01-22T00:04:07.511Z,1.69
2023-01-22T00:04:28.568Z,1.68
2023-01-22T00:04:49.625Z,1.68
2023-01-22T00:05:10.683Z,1.67
2023-01-22T00:05:31.764Z,1.67
2023-01-22T00:05:52.827Z,1.67
2023-01-22T00:06:13.902Z,1.67
2023-01-22T00:06:34.944Z,1.67
2023-01-22T00:06:56.005Z,1.68
2023-01-22T00:07:17.087Z,1.67
2023-01-22T00:07:38.131Z,1.68
2023-01-22T00:07:59.200Z,1.67
2023-01-22T00:08:20.274Z,1.68
2023-01-22T00:08:41.323Z,1.68
2023-01-22T00:09:02.374Z,1.68
2023-01-22T00:09:23.588Z,1.68
2023-01-22T00:09:44.657Z,1.68
2023-01-22T00:10:05.703Z,1.68
2023-01-22T00:10:26.768Z,1.67
2023-01-22T00:10:47.839Z,1.68
2023-01-22T00:11:08.942Z,1.68
2023-01-22T00:11:29.993Z,1.67
2023-01-22T00:11:51.048Z,1.66
2023-01-22T00:12:12.103Z,1.66
2023-01-22T00:12:33.159Z,1.65
2023-01-22T00:12:54.237Z,1.66
2023-01-22T00:13:15.281Z,1.66
2023-01-22T00:13:36.339Z,1.66
2023-01-22T00:13:57.402Z,1.66
2023-01-22T00:14:18.539Z,1.66
2023-01-22T00:14:39.665Z,1.66
2023-01-22T00:15:00.722Z,1.66
2023-01-22T00:15:21.815Z,1.65
2023-01-22T00:15:42.990Z,1.65
2023-01-22T00:16:04.130Z,1.65
2023-01-22T00:16:25.190Z,1.65
2023-01-22T00:16:46.259Z,1.65
2023-01-22T00:17:07.323Z,1.65
2023-01-22T00:17:28.372Z,1.65
2023-01-22T00:17:49.436Z,1.65
2023-01-22T00:18:10.492Z,1.63
2023-01-22T00:18:31.570Z,1.64
2023-01-22T00:18:52.606Z,1.63
2023-01-22T00:19:13.685Z,1.63
2023-01-22T00:19:34.733Z,1.63
2023-01-22T00:19:55.988Z,1.63
2023-01-22T00:20:17.472Z,1.62
2023-01-22T00:20:40.818Z,1.63
2023-01-22T00:21:02.594Z,1.63
2023-01-22T00:21:23.668Z,1.62
2023-01-22T00:21:44.717Z,1.63
2023-01-22T00:22:05.788Z,1.64
2023-01-22T00:22:26.833Z,1.63
2023-01-22T00:22:47.895Z,1.63
2023-01-22T00:23:08.964Z,1.63
2023-01-22T00:23:30.037Z,1.64
2023-01-22T00:23:51.069Z,1.63
2023-01-22T00:24:12.123Z,1.63
2023-01-22T00:24:33.179Z,1.64
2023-01-22T00:24:54.241Z,1.64
2023-01-22T00:25:15.308Z,1.64
2023-01-22T00:25:36.377Z,1.64
2023-01-22T00:25:57.424Z,1.64
2023-01-22T00:26:18.482Z,1.63
2023-01-22T00:26:39.542Z,1.64
2023-01-22T00:27:00.599Z,1.65
2023-01-22T00:27:21.656Z,1.65
2023-01-22T00:27:42.732Z,1.65
2023-01-22T00:28:03.797Z,1.65
2023-01-22T00:28:24.849Z,1.65
2023-01-22T00:28:45.912Z,1.65
2023-01-22T00:29:06.964Z,1.65
2023-01-22T00:29:28.020Z,1.65
2023-01-22T00:29:49.092Z,1.65
2023-01-22T00:30:10.184Z,1.65
2023-01-22T00:30:31.219Z,1.65
2023-01-22T00:30:52.402Z,1.65
2023-01-22T00:31:13.553Z,1.65
2023-01-22T00:31:34.733Z,1.65
2023-01-22T00:31:56.040Z,1.65
2023-01-22T00:32:17.322Z,1.65
2023-01-22T00:32:38.399Z,1.66
2023-01-22T00:32:59.467Z,1.65
2023-01-22T00:33:20.517Z,1.65
2023-01-22T00:33:41.608Z,1.65
2023-01-22T00:34:02.649Z,1.66
2023-01-22T00:34:23.692Z,1.66
2023-01-22T00:34:44.758Z,1.65
2023-01-22T00:35:05.812Z,1.65
2023-01-22T00:35:26.881Z,1.65
2023-01-22T00:35:47.952Z,1.64
2023-01-22T00:36:09.010Z,1.65
2023-01-22T00:36:30.079Z,1.65
2023-01-22T00:36:51.140Z,1.65
2023-01-22T00:37:12.206Z,1.65
2023-01-22T00:37:33.259Z,1.64
2023-01-22T00:37:54.328Z,1.64
2023-01-22T00:38:15.376Z,1.64
2023-01-22T00:38:36.435Z,1.64
2023-01-22T00:38:57.499Z,1.65
2023-01-22T00:39:18.546Z,1.65
2023-01-22T00:39:39.602Z,1.64
2023-01-22T00:40:00.660Z,1.64
2023-01-22T00:40:21.718Z,1.63
2023-01-22T00:40:42.944Z,1.65
2023-01-22T00:41:04.012Z,1.64
2023-01-22T00:41:25.060Z,1.64
2023-01-22T00:41:46.177Z,1.65
2023-01-22T00:42:07.192Z,1.65
2023-01-22T00:42:28.257Z,1.65
2023-01-22T00:42:49.304Z,1.65
2023-01-22T00:43:10.381Z,1.65
2023-01-22T00:43:31.431Z,1.65
2023-01-22T00:43:53.046Z,1.66
2023-01-22T00:44:14.136Z,1.66
2023-01-22T00:44:35.202Z,1.66
2023-01-22T00:44:56.262Z,1.66
2023-01-22T00:45:17.324Z,1.66
2023-01-22T00:45:38.414Z,1.66
2023-01-22T00:45:59.622Z,1.66
2023-01-22T00:46:20.780Z,1.66
2023-01-22T00:46:41.913Z,1.67
2023-01-22T00:47:02.935Z,1.66
2023-01-22T00:47:24.016Z,1.66
2023-01-22T00:47:45.071Z,1.66
2023-01-22T00:48:06.130Z,1.66
2023-01-22T00:48:27.206Z,1.66
2023-01-22T00:48:48.344Z,1.66
2023-01-22T00:49:09.360Z,1.65
2023-01-22T00:49:30.421Z,1.66
2023-01-22T00:49:51.495Z,1.66
2023-01-22T00:50:12.535Z,1.66
2023-01-22T00:50:33.600Z,1.66
2023-01-22T00:50:54.717Z,1.66
2023-01-22T00:51:15.848Z,1.67
2023-01-22T00:51:36.913Z,1.66
2023-01-22T00:51:58.012Z,1.66
2023-01-22T00:52:19.040Z,1.66
2023-01-22T00:52:40.115Z,1.66
2023-01-22T00:53:01.184Z,1.66
2023-01-22T00:53:22.242Z,1.67
2023-01-22T00:53:43.305Z,1.66
2023-01-22T00:54:04.366Z,1.66
2023-01-22T00:54:25.427Z,1.66
2023-01-22T00:54:46.516Z,1.66
2023-01-22T00:55:07.555Z,1.66
2023-01-22T00:55:28.619Z,1.66
2023-01-22T00:55:49.672Z,1.67
2023-01-22T00:56:10.730Z,1.66
2023-01-22T00:56:31.943Z,1.66
2023-01-22T00:56:53.018Z,1.66
2023-01-22T00:57:14.080Z,1.66
2023-01-22T00:57:35.138Z,1.66
2023-01-22T00:57:56.191Z,1.66
2023-01-22T00:58:17.254Z,1.66
2023-01-22T00:58:38.318Z,1.66
2023-01-22T00:58:59.358Z,1.66
2023-01-22T00:59:20.436Z,1.67
2023-01-22T00:59:41.482Z,1.66
2023-01-22T01:00:02.535Z,1.66
2023-01-22T01:00:23.593Z,1.66
2023-01-22T01:00:44.706Z,1.65
2023-01-22T01:01:05.779Z,1.65
2023-01-22T01:01:26.857Z,1.65
2023-01-22T01:01:48.063Z,1.65
2023-01-22T01:02:09.189Z,1.66
2023-01-22T01:02:30.252Z,1.65
2023-01-22T01:02:51.304Z,1.65
2023-01-22T01:03:12.363Z,1.65
2023-01-22T01:03:33.437Z,1.64
2023-01-22T01:03:54.481Z,1.64
2023-01-22T01:04:15.554Z,1.64
2023-01-22T01:04:36.605Z,1.65
2023-01-22T01:04:57.665Z,1.64
2023-01-22T01:05:18.726Z,1.65
2023-01-22T01:05:39.785Z,1.65
2023-01-22T01:06:00.870Z,1.65
2023-01-22T01:06:21.919Z,1.65
2023-01-22T01:06:42.955Z,1.66
2023-01-22T01:07:04.177Z,1.66
2023-01-22T01:07:25.233Z,1.66
2023-01-22T01:07:46.301Z,1.65
2023-01-22T01:08:07.359Z,1.66
2023-01-22T01:08:28.426Z,1.66
2023-01-22T01:08:49.479Z,1.66
2023-01-22T01:09:10.564Z,1.66
2023-01-22T01:09:31.604Z,1.66
2023-01-22T01:09:52.651Z,1.66
2023-01-22T01:10:13.703Z,1.66
2023-01-22T01:10:34.763Z,1.65
2023-01-22T01:10:55.812Z,1.66
2023-01-22T01:11:16.877Z,1.66
2023-01-22T01:11:37.944Z,1.66
2023-01-22T01:11:58.983Z,1.66
2023-01-22T01:12:20.069Z,1.66
2023-01-22T01:12:41.225Z,1.66
2023-01-22T01:13:02.239Z,1.66
2023-01-22T01:13:23.301Z,1.67
2023-01-22T01:13:44.348Z,1.66
2023-01-22T01:14:05.397Z,1.66
2023-01-22T01:14:26.454Z,1.66
2023-01-22T01:14:47.515Z,1.66
2023-01-22T01:15:08.576Z,1.66
2023-01-22T01:15:29.657Z,1.66
2023-01-22T01:15:50.758Z,1.66
2023-01-22T01:16:11.865Z,1.65
2023-01-22T01:16:32.885Z,1.65
2023-01-22T01:16:54.688Z,1.65
2023-01-22T01:17:15.739Z,1.65
2023-01-22T01:17:36.815Z,1.66
2023-01-22T01:17:57.871Z,1.66
2023-01-22T01:18:18.939Z,1.66
2023-01-22T01:18:39.985Z,1.66
2023-01-22T01:19:01.041Z,1.67
2023-01-22T01:19:22.095Z,1.66
2023-01-22T01:19:43.152Z,1.66
2023-01-22T01:20:04.219Z,1.67
2023-01-22T01:20:25.280Z,1.67
2023-01-22T01:20:46.335Z,1.67
2023-01-22T01:21:07.457Z,1.67
2023-01-22T01:21:28.540Z,1.66
2023-01-22T01:21:49.589Z,1.66
2023-01-22T01:22:10.650Z,1.66
2023-01-22T01:22:31.726Z,1.66
2023-01-22T01:22:52.793Z,1.65
2023-01-22T01:23:13.855Z,1.66
2023-01-22T01:23:34.904Z,1.66
2023-01-22T01:23:55.975Z,1.66
2023-01-22T01:24:17.010Z,1.66
2023-01-22T01:24:38.083Z,1.66
2023-01-22T01:24:59.136Z,1.66
2023-01-22T01:25:20.190Z,1.66
2023-01-22T01:25:41.261Z,1.66
2023-01-22T01:26:02.400Z,1.65
2023-01-22T01:26:23.481Z,1.66
2023-01-22T01:26:44.589Z,1.66
2023-01-22T01:27:05.653Z,1.66
2023-01-22T01:27:26.696Z,1.67
2023-01-22T01:27:47.871Z,1.67
2023-01-22T01:28:08.896Z,1.67
2023-01-22T01:28:29.956Z,1.66
2023-01-22T01:28:51.020Z,1.66
2023-01-22T01:29:12.075Z,1.67
2023-01-22T01:29:33.140Z,1.67
2023-01-22T01:29:54.191Z,1.67
2023-01-22T01:30:15.292Z,1.67
2023-01-22T01:30:36.399Z,1.67
2023-01-22T01:30:57.627Z,1.67
2023-01-22T01:31:18.884Z,1.67
2023-01-22T01:31:40.026Z,1.67
2023-01-22T01:32:01.085Z,1.67
2023-01-22T01:32:22.112Z,1.68
2023-01-22T01:32:43.175Z,1.67
2023-01-22T01:33:04.230Z,1.68
2023-01-22T01:33:25.310Z,1.67
2023-01-22T01:33:46.381Z,1.68
2023-01-22T01:34:07.422Z,1.68
2023-01-22T01:34:28.484Z,1.68
2023-01-22T01:34:49.557Z,1.68
2023-01-22T01:35:10.597Z,1.68
2023-01-22T01:35:31.650Z,1.68
2023-01-22T01:35:52.727Z,1.68
2023-01-22T01:36:13.774Z,1.68
2023-01-22T01:36:48.350Z,1.69
2023-01-22T01:37:01.812Z,1.69
2023-01-22T01:37:22.877Z,1.69
2023-01-22T01:37:43.922Z,1.69
2023-01-22T01:38:04.968Z,1.69
2023-01-22T01:38:26.038Z,1.69
2023-01-22T01:38:47.245Z,1.69
2023-01-22T01:39:08.301Z,1.69
2023-01-22T01:39:29.370Z,1.69
2023-01-22T01:39:50.421Z,1.69
2023-01-22T01:40:11.476Z,1.69
2023-01-22T01:40:32.531Z,1.68
2023-01-22T01:40:53.587Z,1.69
2023-01-22T01:41:14.740Z,1.68
2023-01-22T01:41:35.813Z,1.69
2023-01-22T01:41:56.868Z,1.69
2023-01-22T01:42:17.907Z,1.68
2023-01-22T01:42:38.967Z,1.69
2023-01-22T01:43:00.140Z,1.68
2023-01-22T01:43:21.151Z,1.68
2023-01-22T01:43:42.202Z,1.68
2023-01-22T01:44:03.281Z,1.69
2023-01-22T01:44:24.361Z,1.69
2023-01-22T01:44:45.389Z,1.69
2023-01-22T01:45:06.442Z,1.69
2023-01-22T01:45:27.512Z,1.70
2023-01-22T01:45:48.561Z,1.69
2023-01-22T01:46:09.616Z,1.69
2023-01-22T01:46:30.745Z,1.70
2023-01-22T01:46:51.865Z,1.70
2023-01-22T01:47:12.913Z,1.69
2023-01-22T01:47:33.968Z,1.70
2023-01-22T01:47:55.055Z,1.70
2023-01-22T01:48:16.085Z,1.70
2023-01-22T01:48:37.143Z,1.70
2023-01-22T01:48:58.204Z,1.70
2023-01-22T01:49:19.270Z,1.70
2023-01-22T01:49:40.329Z,1.71
2023-01-22T01:50:01.383Z,1.70
2023-01-22T01:50:22.435Z,1.70
2023-01-22T01:50:43.508Z,1.70
2023-01-22T01:51:04.648Z,1.70
2023-01-22T01:51:25.685Z,1.70
2023-01-22T01:51:46.750Z,1.71
2023-01-22T01:52:07.816Z,1.71
2023-01-22T01:52:28.872Z,1.71
2023-01-22T01:52:49.933Z,1.70
2023-01-22T01:53:10.994Z,1.71
2023-01-22T01:53:32.046Z,1.71
2023-01-22T01:53:53.227Z,1.71
2023-01-22T01:54:14.279Z,1.71
2023-01-22T01:54:35.491Z,1.71
2023-01-22T01:54:56.545Z,1.71
2023-01-22T01:55:17.605Z,1.72
2023-01-22T01:55:38.658Z,1.71
2023-01-22T01:55:59.751Z,1.71
2023-01-22T01:56:20.783Z,1.71
2023-01-22T01:56:41.839Z,1.71
2023-01-22T01:57:02.902Z,1.71
2023-01-22T01:57:23.950Z,1.72
2023-01-22T01:57:44.989Z,1.72
2023-01-22T01:58:06.168Z,1.72
2023-01-22T01:58:27.172Z,1.73
2023-01-22T01:58:48.226Z,1.72
2023-01-22T01:59:09.286Z,1.72
2023-01-22T01:59:32.217Z,1.72
2023-01-22T01:59:53.299Z,1.72
2023-01-22T02:00:14.397Z,1.73
2023-01-22T02:00:35.521Z,1.73
2023-01-22T02:00:56.644Z,1.73
2023-01-22T02:01:17.661Z,1.73
2023-01-22T02:01:38.754Z,1.73
2023-01-22T02:01:59.791Z,1.73
2023-01-22T02:02:20.939Z,1.74
2023-01-22T02:02:42.020Z,1.73
2023-01-22T02:03:03.059Z,1.73
2023-01-22T02:03:24.117Z,1.74
2023-01-22T02:03:45.177Z,1.73
2023-01-22T02:04:06.245Z,1.73
2023-01-22T02:04:27.311Z,1.73
2023-01-22T02:04:50.187Z,1.73
2023-01-22T02:05:11.250Z,1.73
2023-01-22T02:05:32.308Z,1.72
2023-01-22T02:05:53.362Z,1.74
2023-01-22T02:06:14.421Z,1.73
2023-01-22T02:06:35.497Z,1.74
2023-01-22T02:06:56.547Z,1.73
2023-01-22T02:07:17.610Z,1.74
2023-01-22T02:07:38.663Z,1.73
2023-01-22T02:07:59.736Z,1.74
2023-01-22T02:08:20.782Z,1.73
2023-01-22T02:08:41.841Z,1.73
2023-01-22T02:09:02.895Z,1.73
2023-01-22T02:09:23.952Z,1.74
2023-01-22T02:09:45.007Z,1.74
2023-01-22T02:10:07.960Z,1.73
2023-01-22T02:10:29.011Z,1.73
2023-01-22T02:10:50.105Z,1.74
2023-01-22T02:11:11.140Z,1.73
2023-01-22T02:11:32.208Z,1.74
2023-01-22T02:11:53.275Z,1.74
2023-01-22T02:12:14.323Z,1.74
2023-01-22T02:12:35.381Z,1.74
2023-01-22T02:12:56.452Z,1.75
2023-01-22T02:13:17.609Z,1.74
2023-01-22T02:13:38.618Z,1.74
2023-01-22T02:13:59.684Z,1.74
2023-01-22T02:14:20.737Z,1.75
2023-01-22T02:14:41.795Z,1.74
2023-01-22T02:15:02.859Z,1.74
2023-01-22T02:15:25.878Z,1.75
2023-01-22T02:15:46.923Z,1.75
2023-01-22T02:16:08.017Z,1.75
2023-01-22T02:16:29.117Z,1.74
2023-01-22T02:16:50.153Z,1.74
2023-01-22T02:17:11.218Z,1.74
2023-01-22T02:17:32.271Z,1.75
2023-01-22T02:17:53.327Z,1.75
2023-01-22T02:18:14.384Z,1.76
2023-01-22T02:18:35.459Z,1.74
2023-01-22T02:18:56.521Z,1.75
2023-01-22T02:19:17.571Z,1.75
2023-01-22T02:19:38.647Z,1.74
2023-01-22T02:19:59.710Z,1.74
2023-01-22T02:20:20.776Z,1.75
2023-01-22T02:20:43.688Z,1.74
2023-01-22T02:21:04.754Z,1.74
2023-01-22T02:21:25.788Z,1.75
2023-01-22T02:21:46.857Z,1.74
2023-01-22T02:22:07.906Z,1.75
2023-01-22T02:22:28.964Z,1.74
2023-01-22T02:22:50.037Z,1.75
2023-01-22T02:23:11.076Z,1.75
2023-01-22T02:23:32.149Z,1.74
2023-01-22T02:23:53.210Z,1.75
2023-01-22T02:24:14.249Z,1.75
2023-01-22T02:24:35.305Z,1.74
2023-01-22T02:24:56.361Z,1.75
2023-01-22T02:25:17.417Z,1.75
2023-01-22T02:25:38.473Z,1.75
2023-01-22T02:26:01.455Z,1.75
2023-01-22T02:26:22.506Z,1.76
2023-01-22T02:26:43.563Z,1.76
2023-01-22T02:27:04.612Z,1.76
2023-01-22T02:27:25.674Z,1.76
2023-01-22T02:27:46.730Z,1.77
2023-01-22T02:28:07.779Z,1.76
2023-01-22T02:28:28.949Z,1.77
2023-01-22T02:28:50.009Z,1.77
2023-01-22T02:29:11.026Z,1.76
2023-01-22T02:29:32.082Z,1.77
2023-01-22T02:29:53.144Z,1.77
2023-01-22T02:30:14.194Z,1.78
2023-01-22T02:30:35.328Z,1.78
2023-01-22T02:30:56.510Z,1.78
2023-01-22T02:31:19.197Z,1.78
2023-01-22T02:31:40.285Z,1.77
2023-01-22T02:32:01.338Z,1.78
2023-01-22T02:32:22.395Z,1.78
2023-01-22T02:32:43.500Z,1.79
2023-01-22T02:33:04.614Z,1.78
2023-01-22T02:33:25.651Z,1.79
2023-01-22T02:33:46.684Z,1.78
2023-01-22T02:34:07.765Z,1.78
2023-01-22T02:34:28.805Z,1.79
2023-01-22T02:34:49.875Z,1.79
2023-01-22T02:35:10.945Z,1.78
2023-01-22T02:35:32.021Z,1.78
2023-01-22T02:35:53.101Z,1.79
2023-01-22T02:36:14.137Z,1.79
2023-01-22T02:36:37.157Z,1.79
2023-01-22T02:36:58.201Z,1.79
2023-01-22T02:37:19.261Z,1.79
2023-01-22T02:37:40.321Z,1.80
2023-01-22T02:38:01.371Z,1.79
2023-01-22T02:38:22.433Z,1.80
2023-01-22T02:38:43.493Z,1.79
2023-01-22T02:39:04.549Z,1.79
2023-01-22T02:39:25.615Z,1.79
2023-01-22T02:39:46.686Z,1.79
2023-01-22T02:40:09.645Z,1.79
2023-01-22T02:40:30.701Z,1.79
2023-01-22T02:40:51.769Z,1.80
2023-01-22T02:41:12.813Z,1.80
2023-01-22T02:41:33.867Z,1.80
2023-01-22T02:41:54.942Z,1.80
2023-01-22T02:42:15.993Z,1.81
2023-01-22T02:42:37.039Z,1.80
2023-01-22T02:42:58.098Z,1.81
2023-01-22T02:43:19.177Z,1.80
2023-01-22T02:43:40.329Z,1.80
2023-01-22T02:44:01.365Z,1.80
2023-01-22T02:44:22.401Z,1.80
2023-01-22T02:44:43.460Z,1.80
2023-01-22T02:45:06.132Z,1.81
2023-01-22T02:45:27.219Z,1.81
2023-01-22T02:45:48.297Z,1.81
2023-01-22T02:46:09.354Z,1.81
2023-01-22T02:46:30.499Z,1.81
2023-01-22T02:46:51.583Z,1.81
2023-01-22T02:47:12.635Z,1.81
2023-01-22T02:47:33.670Z,1.81
2023-01-22T02:47:54.733Z,1.81
2023-01-22T02:48:15.810Z,1.81
2023-01-22T02:48:36.848Z,1.81
2023-01-22T02:48:57.899Z,1.81
2023-01-22T02:49:18.957Z,1.82
2023-01-22T02:49:40.015Z,1.82
2023-01-22T02:50:01.223Z,1.83
2023-01-22T02:50:22.326Z,1.82
2023-01-22T02:50:43.380Z,1.82
2023-01-22T02:51:04.486Z,1.82
2023-01-22T02:51:25.572Z,1.82
2023-01-22T02:51:46.620Z,1.83
2023-01-22T02:52:07.676Z,1.82
2023-01-22T02:52:28.751Z,1.83
2023-01-22T02:52:49.789Z,1.82
2023-01-22T02:53:10.838Z,1.82
2023-01-22T02:53:31.908Z,1.82
2023-01-22T02:53:52.947Z,1.82
2023-01-22T02:54:14.014Z,1.81
2023-01-22T02:54:35.080Z,1.81
2023-01-22T02:54:56.167Z,1.82
2023-01-22T02:55:17.214Z,1.81
2023-01-22T02:55:38.297Z,1.81
2023-01-22T02:55:59.355Z,1.82
2023-01-22T02:56:20.415Z,1.82
2023-01-22T02:56:41.482Z,1.82
2023-01-22T02:57:02.544Z,1.83
2023-01-22T02:57:23.593Z,1.82
2023-01-22T02:57:44.644Z,1.82
2023-01-22T02:58:05.706Z,1.82
2023-01-22T02:58:26.760Z,1.82
2023-01-22T02:58:47.919Z,1.82
2023-01-22T02:59:08.978Z,1.82
2023-01-22T02:59:30.017Z,1.82
2023-01-22T02:59:51.054Z,1.81
2023-01-22T03:00:12.109Z,1.82
2023-01-22T03:00:33.171Z,1.81
2023-01-22T03:00:54.409Z,1.82
2023-01-22T03:01:15.504Z,1.81
2023-01-22T03:01:36.536Z,1.82
2023-01-22T03:01:57.642Z,1.81
2023-01-22T03:02:18.718Z,1.82
2023-01-22T03:02:39.792Z,1.81
2023-01-22T03:03:00.850Z,1.80
2023-01-22T03:03:21.905Z,1.80
2023-01-22T03:03:43.003Z,1.81
2023-01-22T03:04:04.071Z,1.81
2023-01-22T03:04:25.111Z,1.81
2023-01-22T03:04:46.168Z,1.81
2023-01-22T03:05:07.219Z,1.82
2023-01-22T03:05:28.273Z,1.82
2023-01-22T03:05:49.325Z,1.82
2023-01-22T03:06:10.567Z,1.82
2023-01-22T03:06:31.622Z,1.83
2023-01-22T03:06:52.671Z,1.82
2023-01-22T03:07:13.735Z,1.82
2023-01-22T03:07:34.800Z,1.82
2023-01-22T03:07:55.852Z,1.83
2023-01-22T03:08:16.923Z,1.83
2023-01-22T03:08:37.969Z,1.83
2023-01-22T03:08:59.024Z,1.82
2023-01-22T03:09:20.078Z,1.82
2023-01-22T03:09:41.157Z,1.81
2023-01-22T03:10:02.193Z,1.81
2023-01-22T03:10:23.254Z,1.82
2023-01-22T03:10:44.313Z,1.82
2023-01-22T03:11:05.350Z,1.81
2023-01-22T03:11:26.435Z,1.82
2023-01-22T03:11:47.505Z,1.82
2023-01-22T03:12:08.547Z,1.81
2023-01-22T03:12:29.601Z,1.81
2023-01-22T03:12:50.675Z,1.82
2023-01-22T03:13:11.719Z,1.82
2023-01-22T03:13:32.776Z,1.81
2023-01-22T03:13:53.949Z,1.82
2023-01-22T03:14:14.959Z,1.82
2023-01-22T03:14:36.012Z,1.81
2023-01-22T03:14:57.085Z,1.81
2023-01-22T03:15:18.128Z,1.81
2023-01-22T03:15:39.181Z,1.81
2023-01-22T03:16:00.234Z,1.81
2023-01-22T03:16:21.326Z,1.81
2023-01-22T03:16:42.578Z,1.81
2023-01-22T03:17:03.650Z,1.81
2023-01-22T03:17:24.703Z,1.81
2023-01-22T03:17:45.759Z,1.81
2023-01-22T03:18:06.818Z,1.82
2023-01-22T03:18:27.884Z,1.82
2023-01-22T03:18:48.934Z,1.82
2023-01-22T03:19:09.999Z,1.82
2023-01-22T03:19:31.076Z,1.82
2023-01-22T03:19:52.097Z,1.82
2023-01-22T03:20:13.163Z,1.82
2023-01-22T03:20:34.222Z,1.81
2023-01-22T03:20:55.274Z,1.81
2023-01-22T03:21:16.328Z,1.81
2023-01-22T03:21:37.399Z,1.81
2023-01-22T03:21:58.479Z,1.80
2023-01-22T03:22:19.533Z,1.81
2023-01-22T03:22:40.582Z,1.81
2023-01-22T03:23:01.643Z,1.81
2023-01-22T03:23:22.700Z,1.81
2023-01-22T03:23:43.840Z,1.82
2023-01-22T03:24:04.877Z,1.83
2023-01-22T03:24:25.925Z,1.82
2023-01-22T03:24:47.115Z,1.83
2023-01-22T03:25:08.181Z,1.82
2023-01-22T03:25:29.236Z,1.82
2023-01-22T03:25:50.315Z,1.82
2023-01-22T03:26:11.369Z,1.83
2023-01-22T03:26:32.425Z,1.83
2023-01-22T03:26:53.487Z,1.83
2023-01-22T03:27:14.565Z,1.83
2023-01-22T03:27:35.622Z,1.83
2023-01-22T03:27:56.695Z,1.83
2023-01-22T03:28:17.744Z,1.82
2023-01-22T03:28:38.803Z,1.82
2023-01-22T03:28:59.972Z,1.82
2023-01-22T03:29:20.985Z,1.82
2023-01-22T03:29:42.032Z,1.82
2023-01-22T03:30:03.100Z,1.82
2023-01-22T03:30:24.165Z,1.82
2023-01-22T03:30:45.213Z,1.82
2023-01-22T03:31:06.294Z,1.82
2023-01-22T03:31:27.490Z,1.82
2023-01-22T03:31:48.790Z,1.82
2023-01-22T03:32:09.952Z,1.82
2023-01-22T03:32:31.142Z,1.83
2023-01-22T03:32:52.200Z,1.83
2023-01-22T03:33:13.266Z,1.83
2023-01-22T03:33:34.328Z,1.83
2023-01-22T03:33:55.378Z,1.83
2023-01-22T03:34:16.444Z,1.83
2023-01-22T03:34:37.484Z,1.83
2023-01-22T03:34:58.551Z,1.83
2023-01-22T03:35:19.601Z,1.83
2023-01-22T03:35:40.651Z,1.83
2023-01-22T03:36:01.719Z,1.83
2023-01-22T03:36:22.947Z,1.83
2023-01-22T03:36:44.015Z,1.83
2023-01-22T03:37:05.053Z,1.83
2023-01-22T03:37:26.111Z,1.83
2023-01-22T03:37:47.326Z,1.83
2023-01-22T03:38:08.391Z,1.82
2023-01-22T03:38:29.442Z,1.82
2023-01-22T03:38:50.523Z,1.83
2023-01-22T03:39:11.571Z,1.83
2023-01-22T03:39:32.627Z,1.83
2023-01-22T03:39:53.684Z,1.83
2023-01-22T03:40:14.766Z,1.83
2023-01-22T03:40:35.805Z,1.83
2023-01-22T03:40:56.886Z,1.82
2023-01-22T03:41:17.938Z,1.82
2023-01-22T03:41:38.986Z,1.82
2023-01-22T03:42:00.077Z,1.83
2023-01-22T03:42:21.116Z,1.82
2023-01-22T03:42:42.183Z,1.83
2023-01-22T03:43:03.418Z,1.83
2023-01-22T03:43:24.458Z,1.83
2023-01-22T03:43:45.517Z,1.83
2023-01-22T03:44:06.695Z,1.83
2023-01-22T03:44:27.719Z,1.82
2023-01-22T03:44:48.753Z,1.83
2023-01-22T03:45:09.828Z,1.82
2023-01-22T03:45:30.871Z,1.82
2023-01-22T03:45:51.991Z,1.82
2023-01-22T03:46:13.081Z,1.81
2023-01-22T03:46:34.165Z,1.82
2023-01-22T03:46:55.224Z,1.81
2023-01-22T03:47:16.297Z,1.82
2023-01-22T03:47:37.360Z,1.82
2023-01-22T03:47:58.451Z,1.82
2023-01-22T03:48:19.515Z,1.81
2023-01-22T03:48:40.566Z,1.82
2023-01-22T03:49:01.726Z,1.82
2023-01-22T03:49:22.773Z,1.82
2023-01-22T03:49:43.847Z,1.81
2023-01-22T03:50:04.881Z,1.81
2023-01-22T03:50:25.935Z,1.81
2023-01-22T03:50:47.019Z,1.82
2023-01-22T03:51:08.140Z,1.81
2023-01-22T03:51:29.168Z,1.81
2023-01-22T03:51:50.233Z,1.82
2023-01-22T03:52:11.277Z,1.81
2023-01-22T03:52:32.328Z,1.81
2023-01-22T03:52:53.389Z,1.81
2023-01-22T03:53:14.448Z,1.81
2023-01-22T03:53:35.650Z,1.81
2023-01-22T03:53:56.713Z,1.80
2023-01-22T03:54:17.763Z,1.81
2023-01-22T03:54:38.818Z,1.81
2023-01-22T03:54:59.870Z,1.81
2023-01-22T03:55:20.936Z,1.81
2023-01-22T03:55:41.983Z,1.81
2023-01-22T03:56:03.078Z,1.81
2023-01-22T03:56:24.110Z,1.81
2023-01-22T03:56:45.166Z,1.82
2023-01-22T03:57:06.226Z,1.82
2023-01-22T03:57:27.304Z,1.82
2023-01-22T03:57:48.352Z,1.81
2023-01-22T03:58:09.406Z,1.81
2023-01-22T03:58:30.468Z,1.81
2023-01-22T03:58:51.521Z,1.81
2023-01-22T03:59:12.703Z,1.81
2023-01-22T03:59:33.729Z,1.81
2023-01-22T03:59:54.784Z,1.82
2023-01-22T04:00:16.377Z,1.81
2023-01-22T04:00:37.726Z,1.82
2023-01-22T04:00:58.802Z,1.82
2023-01-22T04:01:19.900Z,1.81
2023-01-22T04:01:40.947Z,1.81
2023-01-22T04:02:02.056Z,1.81
2023-01-22T04:02:23.119Z,1.82
2023-01-22T04:02:44.225Z,1.82
2023-01-22T04:03:05.236Z,1.82
2023-01-22T04:03:26.293Z,1.82
2023-01-22T04:03:47.352Z,1.82
2023-01-22T04:04:08.439Z,1.82
2023-01-22T04:04:29.516Z,1.82
2023-01-22T04:04:50.564Z,1.81
2023-01-22T04:05:11.632Z,1.81
2023-01-22T04:05:32.684Z,1.82
2023-01-22T04:05:53.742Z,1.82
2023-01-22T04:06:14.797Z,1.82
2023-01-22T04:06:35.874Z,1.82
2023-01-22T04:06:56.913Z,1.82
2023-01-22T04:07:17.966Z,1.82
2023-01-22T04:07:39.069Z,1.82
2023-01-22T04:08:00.116Z,1.82
2023-01-22T04:08:21.153Z,1.83
2023-01-22T04:08:42.217Z,1.82
2023-01-22T04:09:03.266Z,1.82
2023-01-22T04:09:24.337Z,1.82
2023-01-22T04:09:45.402Z,1.82
2023-01-22T04:10:06.448Z,1.83
2023-01-22T04:10:27.507Z,1.82
2023-01-22T04:10:48.572Z,1.82
2023-01-22T04:11:09.614Z,1.82
2023-01-22T04:11:30.682Z,1.81
2023-01-22T04:11:51.734Z,1.82
2023-01-22T04:12:12.786Z,1.82
2023-01-22T04:12:33.844Z,1.83
2023-01-22T04:12:54.919Z,1.83
2023-01-22T04:13:15.954Z,1.83
2023-01-22T04:13:37.010Z,1.82
2023-01-22T04:13:58.060Z,1.83
2023-01-22T04:14:19.238Z,1.83
2023-01-22T04:14:40.273Z,1.82
2023-01-22T04:15:01.352Z,1.82
2023-01-22T04:15:22.398Z,1.83
2023-01-22T04:15:43.460Z,1.83
2023-01-22T04:16:04.526Z,1.83
2023-01-22T04:16:25.628Z,1.83
2023-01-22T04:16:46.674Z,1.83
2023-01-22T04:17:07.720Z,1.82
2023-01-22T04:17:28.761Z,1.82
2023-01-22T04:17:49.814Z,1.83
2023-01-22T04:18:10.866Z,1.83
2023-01-22T04:18:31.929Z,1.83
2023-01-22T04:18:52.985Z,1.83
2023-01-22T04:19:14.049Z,1.83
2023-01-22T04:19:35.112Z,1.83
2023-01-22T04:19:56.184Z,1.83
2023-01-22T04:20:17.455Z,1.84
2023-01-22T04:20:38.612Z,1.84
2023-01-22T04:20:59.668Z,1.84
2023-01-22T04:21:20.757Z,1.84
2023-01-22T04:21:41.812Z,1.84
2023-01-22T04:22:02.864Z,1.83
2023-01-22T04:22:23.911Z,1.83
2023-01-22T04:22:44.975Z,1.84
2023-01-22T04:23:06.026Z,1.84
2023-01-22T04:23:27.092Z,1.84
2023-01-22T04:23:48.154Z,1.84
2023-01-22T04:24:09.197Z,1.84
2023-01-22T04:24:30.280Z,1.84
2023-01-22T04:24:51.322Z,1.83
2023-01-22T04:25:12.389Z,1.83
2023-01-22T04:25:33.452Z,1.83
2023-01-22T04:25:54.498Z,1.84
2023-01-22T04:26:15.566Z,1.83
2023-01-22T04:26:36.611Z,1.83
2023-01-22T04:26:57.670Z,1.84
2023-01-22T04:27:18.721Z,1.84
2023-01-22T04:27:39.794Z,1.84
2023-01-22T04:28:00.837Z,1.84
2023-01-22T04:28:21.906Z,1.85
2023-01-22T04:28:42.947Z,1.84
2023-01-22T04:29:04.013Z,1.85
2023-01-22T04:29:25.191Z,1.85
2023-01-22T04:29:46.223Z,1.84
2023-01-22T04:30:07.264Z,1.85
2023-01-22T04:30:28.392Z,1.85
2023-01-22T04:30:49.560Z,1.85
2023-01-22T04:31:10.701Z,1.84
2023-01-22T04:31:31.910Z,1.85
2023-01-22T04:31:52.973Z,1.85
2023-01-22T04:32:14.030Z,1.85
2023-01-22T04:32:35.081Z,1.85
2023-01-22T04:32:56.157Z,1.86
2023-01-22T04:33:17.197Z,1.86
2023-01-22T04:33:38.251Z,1.86
2023-01-22T04:33:59.324Z,1.86
2023-01-22T04:34:20.379Z,1.86
2023-01-22T04:34:41.436Z,1.86
2023-01-22T04:35:02.481Z,1.86
2023-01-22T04:35:23.552Z,1.85
2023-01-22T04:35:44.623Z,1.86
2023-01-22T04:36:05.691Z,1.85
2023-01-22T04:36:28.935Z,1.86
2023-01-22T04:36:50.106Z,1.86
2023-01-22T04:37:11.167Z,1.86
2023-01-22T04:37:32.216Z,1.86
2023-01-22T04:37:53.267Z,1.86
2023-01-22T04:38:14.349Z,1.86
2023-01-22T04:38:35.491Z,1.86
2023-01-22T04:38:56.548Z,1.85
2023-01-22T04:39:17.608Z,1.85
2023-01-22T04:39:38.657Z,1.86
2023-01-22T04:39:59.713Z,1.86
2023-01-22T04:40:21.002Z,1.86
2023-01-22T04:40:42.038Z,1.86
2023-01-22T04:41:03.110Z,1.87